Amherst, WI

12:24 AM CDT on August 30, 2015 (GMT -0500)
KWIWAUPA3 | | Change Station
CLOSE
Current Station
Personal Weather Station
Location: Waupaca, WI
Elevation: 900 ft
Nearby Weather Stations
Active Advisory: Special Statement

Elev 900 ft 44.38 °N, 89.23 °W | Updated 4 minutes ago

Partly Cloudy
Partly Cloudy
53.8 °F
Feels Like 53.8 °F
N
0.0
Wind Variable Wind from East
Gusts 0.0 mph

Today
High -- | Low -- °F
--% Chance of Precip.
Yesterday
High -- | Low -- °F
Precip. -- in
6:17 AM 7:37 PM
Full, 100% visible
Pressure 30.07 in
Visibility 5.0 miles
Clouds Scattered Clouds 200 ft
Scattered Clouds 1500 ft
Dew Point 52 °F
Humidity 95%
Rainfall 0.10 in
Snow Depth Not available.
UV 0 out of 12
Pollen 8.90 out of 12
Air Quality Not available.
Flu Activity Not available.
METAR KSTE 300515Z AUTO 00000KT 5SM BR SCT002 SCT015 13/13 A3007 RMK AO2 T01260125
Pressure 30.07 in
Visibility 5.0 miles
Clouds Scattered Clouds 200 ft
Scattered Clouds 1500 ft
Dew Point 52 °F
Humidity 95%
Rainfall 0.10 in
Snow Depth Not available.
UV 0 out of 12
Pollen 8.90 out of 12
Air Quality Not available.
Flu Activity Not available.
METAR KSTE 300515Z AUTO 00000KT 5SM BR SCT002 SCT015 13/13 A3007 RMK AO2 T01260125

10-Day Weather Forecast

×

Almanac

Astronomy

Aug. 30, 2015 Rise Set
Actual Time
Civil Twilight
Nautical Twilight
Astronomical Twilight
Moon
Length of Visible Light
Length of Day
Tomorrow will be .
, % of the Moon is Illuminated

Today's Extremes

State Highs State Lows

Community

WunderPhotos

Upload Photos

1,850,895 photos uploaded!

WunderBlogs® & News

Nearby

Air Quality

  Air Quality AQ Index Pollutant
Not available.

Snow Depth

Station Depth Elevation

Earthquake Activity

City Distance Mag. Time & Date
Minimum magnitude displayed is 2.5.

Coastal Water Temperatures

Place Temperature

Stations

Nearby Weather Stations

Station Location Temp. Windchill Dew Point Humidity Wind Precip. Elev Updated Type
                   
Special Statement
Statement as of 10:55 PM CDT on August 29, 2015

... Fog developing overnight...

Due to light winds and clearing skies... fog was gradually developing
overnight. The fog may become locally dense with visibilities one
quarter mile or less at times.

Motorists should be prepared for rapidly reduced visibilities and
drive with extra caution tonight.

Tdh

1055 PM CDT Sat Aug 29 2015

... Fog developing overnight...

Due to light winds and clearing skies... fog was gradually developing
overnight. The fog may become locally dense with visibilities one
quarter mile or less at times.

Motorists should be prepared for rapidly reduced visibilities and
drive with extra caution tonight.

Tdh